createdAt,value
2023-03-26T00:02:43.525Z,8.74
2023-03-26T00:05:48.332Z,8.62
2023-03-26T00:08:50.778Z,8.78
2023-03-26T00:11:52.622Z,8.76
2023-03-26T00:14:54.384Z,8.55
2023-03-26T00:17:56.442Z,8.55
2023-03-26T00:21:00.398Z,8.49
2023-03-26T00:24:07.595Z,8.39
2023-03-26T00:27:10.421Z,8.27
2023-03-26T00:30:13.023Z,8.20
2023-03-26T00:33:22.349Z,8.17
2023-03-26T00:36:27.235Z,8.08
2023-03-26T00:39:33.675Z,7.93
2023-03-26T00:42:36.980Z,7.90
2023-03-26T00:45:39.749Z,7.99
2023-03-26T00:48:45.781Z,8.09
2023-03-26T00:51:49.424Z,8.10
2023-03-26T00:54:52.232Z,8.28
2023-03-26T00:57:56.051Z,8.33
2023-03-26T01:01:00.870Z,8.33
2023-03-26T01:04:28.708Z,8.35
2023-03-26T01:07:31.083Z,8.38
2023-03-26T01:10:39.238Z,8.34
2023-03-26T01:13:49.711Z,8.34
2023-03-26T01:17:01.663Z,8.29
2023-03-26T01:20:15.058Z,8.22
2023-03-26T01:23:30.850Z,8.02
2023-03-26T01:27:04.638Z,8.10
2023-03-26T01:30:24.921Z,8.01
2023-03-26T01:33:59.445Z,7.99
2023-03-26T01:37:13.296Z,8.00
2023-03-26T01:40:23.698Z,8.03
2023-03-26T01:43:36.562Z,8.13
2023-03-26T01:46:39.959Z,8.17
2023-03-26T01:49:42.728Z,7.95
2023-03-26T01:52:45.724Z,8.25
2023-03-26T01:55:57.051Z,8.33
2023-03-26T01:59:54.116Z,8.34
2023-03-26T02:03:08.821Z,8.42
2023-03-26T02:06:34.905Z,8.44
2023-03-26T02:09:46.347Z,8.41
2023-03-26T02:12:50.389Z,8.33
2023-03-26T02:16:01.791Z,8.34
2023-03-26T02:19:04.994Z,8.35
2023-03-26T02:22:11.171Z,8.33
2023-03-26T02:25:20.480Z,8.35
2023-03-26T02:28:24.864Z,8.50
2023-03-26T02:31:28.315Z,8.58
2023-03-26T02:34:31.699Z,8.51
2023-03-26T02:37:34.899Z,8.60
2023-03-26T02:40:45.848Z,8.57
2023-03-26T02:43:48.520Z,8.64
2023-03-26T02:46:54.320Z,8.59
2023-03-26T02:50:17.261Z,8.54
2023-03-26T02:53:46.569Z,8.55
2023-03-26T02:57:01.667Z,8.51
2023-03-26T03:00:30.556Z,8.50
2023-03-26T03:03:48.827Z,8.57
2023-03-26T03:07:00.533Z,8.33
2023-03-26T03:10:03.565Z,8.16
2023-03-26T03:13:25.740Z,8.24
2023-03-26T03:16:29.161Z,8.21
2023-03-26T03:19:34.343Z,8.26
2023-03-26T03:22:36.465Z,8.23
2023-03-26T03:25:44.029Z,8.30
2023-03-26T03:28:45.855Z,8.38
2023-03-26T03:31:50.554Z,8.50
2023-03-26T03:35:10.629Z,8.51
2023-03-26T03:38:13.176Z,8.46
2023-03-26T03:41:22.305Z,8.46
2023-03-26T03:44:24.043Z,8.56
2023-03-26T03:47:26.957Z,8.71
2023-03-26T03:50:29.548Z,8.61
2023-03-26T03:53:51.261Z,8.50
2023-03-26T03:57:06.421Z,8.48
2023-03-26T04:00:20.168Z,8.35
2023-03-26T04:03:38.783Z,8.26
2023-03-26T04:06:46.148Z,8.10
2023-03-26T04:09:50.805Z,8.24
2023-03-26T04:12:56.372Z,8.02
2023-03-26T04:16:17.984Z,8.07
2023-03-26T04:19:20.266Z,7.84
2023-03-26T04:22:24.094Z,7.80
2023-03-26T04:25:33.769Z,7.71
2023-03-26T04:28:51.059Z,7.62
2023-03-26T04:32:07.173Z,7.57
2023-03-26T04:35:15.057Z,7.50
2023-03-26T04:38:21.756Z,7.45
2023-03-26T04:41:27.427Z,7.28
2023-03-26T04:44:37.672Z,7.48
2023-03-26T04:47:46.920Z,7.43
2023-03-26T04:50:49.973Z,7.44
2023-03-26T04:53:58.838Z,7.43
2023-03-26T04:57:09.132Z,7.61
2023-03-26T05:00:19.153Z,7.69
2023-03-26T05:03:32.589Z,7.68
2023-03-26T05:06:43.089Z,7.80
2023-03-26T05:09:54.553Z,7.94
2023-03-26T05:13:28.619Z,7.97
2023-03-26T05:16:35.311Z,8.12
2023-03-26T05:19:42.692Z,8.23
2023-03-26T05:22:45.048Z,8.49
2023-03-26T05:25:57.690Z,8.53
2023-03-26T05:29:03.009Z,8.49
2023-03-26T05:32:11.876Z,8.30
2023-03-26T05:35:17.630Z,8.24
2023-03-26T05:38:20.717Z,8.23
2023-03-26T05:41:23.029Z,8.14
2023-03-26T05:44:26.700Z,8.24
2023-03-26T05:47:29.112Z,8.45
2023-03-26T05:50:31.780Z,8.71
2023-03-26T05:53:35.585Z,9.07
2023-03-26T05:56:57.338Z,9.27
2023-03-26T06:00:22.067Z,9.49
2023-03-26T06:03:26.672Z,9.97
2023-03-26T06:06:45.362Z,11.50
2023-03-26T06:09:47.813Z,13.05
2023-03-26T06:12:51.058Z,14.89
2023-03-26T06:15:55.057Z,16.76
2023-03-26T06:19:02.593Z,18.19
2023-03-26T06:22:22.178Z,18.62
2023-03-26T06:25:46.745Z,18.04
2023-03-26T06:29:08.233Z,16.87
2023-03-26T06:32:23.149Z,16.48
2023-03-26T06:35:37.921Z,15.79
2023-03-26T06:38:40.883Z,15.02
2023-03-26T06:41:44.608Z,14.87
2023-03-26T06:44:57.369Z,14.64
2023-03-26T06:48:10.453Z,14.58
2023-03-26T06:51:40.773Z,14.32
2023-03-26T06:55:15.500Z,13.83
2023-03-26T06:58:36.890Z,13.42
2023-03-26T07:01:57.582Z,12.96
2023-03-26T07:05:18.420Z,12.65
2023-03-26T07:08:38.839Z,12.50
2023-03-26T07:12:06.792Z,12.28
2023-03-26T07:15:29.032Z,11.84
2023-03-26T07:18:54.474Z,11.77
2023-03-26T07:21:59.739Z,11.46
2023-03-26T07:25:34.116Z,11.55
2023-03-26T07:29:05.118Z,11.42
2023-03-26T07:32:38.149Z,11.11
2023-03-26T07:36:15.938Z,10.94
2023-03-26T07:40:09.468Z,10.89
2023-03-26T07:43:46.318Z,10.97
2023-03-26T07:47:05.329Z,11.08
2023-03-26T07:50:08.934Z,11.15
2023-03-26T07:53:39.823Z,11.55
2023-03-26T07:57:20.463Z,11.64
2023-03-26T08:01:14.981Z,11.84
2023-03-26T08:04:30.374Z,12.71
2023-03-26T08:08:07.410Z,12.99
2023-03-26T08:11:30.121Z,13.12
2023-03-26T08:14:55.503Z,13.04
2023-03-26T08:18:14.707Z,13.17
2023-03-26T08:21:26.748Z,13.30
2023-03-26T08:24:47.669Z,13.33
2023-03-26T08:28:29.789Z,12.90
2023-03-26T08:31:35.624Z,12.99
2023-03-26T08:34:38.765Z,13.06
2023-03-26T08:37:41.307Z,12.94
2023-03-26T08:41:15.182Z,13.14
2023-03-26T08:44:48.306Z,13.67
2023-03-26T08:48:16.056Z,13.72
2023-03-26T08:51:37.493Z,13.21
2023-03-26T08:54:49.511Z,12.80
2023-03-26T08:58:17.886Z,13.34
2023-03-26T09:01:20.622Z,13.14
2023-03-26T09:04:49.919Z,12.90
2023-03-26T09:08:10.868Z,12.78
2023-03-26T09:11:44.828Z,12.63
2023-03-26T09:15:07.103Z,12.44
2023-03-26T09:18:28.151Z,12.21
2023-03-26T09:21:48.984Z,12.33
2023-03-26T09:25:08.791Z,12.74
2023-03-26T09:28:22.678Z,13.18
2023-03-26T09:31:49.034Z,13.48
2023-03-26T09:35:12.646Z,13.29
2023-03-26T09:38:36.982Z,13.27
2023-03-26T09:41:55.475Z,13.56
2023-03-26T09:45:20.327Z,13.47
2023-03-26T09:48:25.560Z,13.27
2023-03-26T09:51:37.720Z,12.96
2023-03-26T09:54:44.547Z,12.91
2023-03-26T09:58:20.346Z,12.96
2023-03-26T10:01:32.709Z,13.41
2023-03-26T10:04:41.604Z,13.77
2023-03-26T10:08:21.858Z,13.60
2023-03-26T10:11:35.171Z,13.29
2023-03-26T10:15:32.002Z,13.16
2023-03-26T10:19:00.955Z,13.35
2023-03-26T10:22:09.848Z,13.11
2023-03-26T10:25:23.780Z,12.98
2023-03-26T10:28:25.519Z,13.20
2023-03-26T10:32:01.129Z,13.15
2023-03-26T10:35:22.553Z,13.19
2023-03-26T10:38:25.834Z,13.03
2023-03-26T10:41:45.138Z,12.92
2023-03-26T10:45:27.096Z,13.11
2023-03-26T10:49:04.384Z,13.18
2023-03-26T10:52:16.848Z,13.12
2023-03-26T10:55:46.906Z,12.93
2023-03-26T10:58:50.391Z,13.05
2023-03-26T11:01:59.294Z,13.34
2023-03-26T11:05:16.602Z,13.31
2023-03-26T11:08:32.246Z,13.24
2023-03-26T11:12:25.679Z,13.80
2023-03-26T11:15:42.930Z,14.45
2023-03-26T11:18:54.195Z,14.60
2023-03-26T11:22:17.712Z,15.05
2023-03-26T11:25:33.105Z,15.17
2023-03-26T11:29:31.347Z,14.97
2023-03-26T11:32:45.547Z,14.69
2023-03-26T11:35:51.256Z,14.55
2023-03-26T11:39:00.048Z,14.32
2023-03-26T11:42:14.128Z,13.83
2023-03-26T11:45:25.196Z,13.68
2023-03-26T11:48:40.794Z,13.59
2023-03-26T11:51:45.746Z,13.34
2023-03-26T11:54:51.042Z,13.34
2023-03-26T11:58:00.016Z,13.12
2023-03-26T12:01:17.337Z,13.21
2023-03-26T12:04:34.018Z,13.39
2023-03-26T12:07:35.894Z,13.65
2023-03-26T12:10:43.268Z,13.62
2023-03-26T12:13:58.514Z,13.92
2023-03-26T12:17:08.831Z,14.04
2023-03-26T12:20:33.892Z,14.44
2023-03-26T12:23:38.752Z,14.77
2023-03-26T12:26:46.328Z,15.02
2023-03-26T12:30:00.177Z,14.87
2023-03-26T12:33:20.469Z,14.63
2023-03-26T12:36:36.852Z,14.43
2023-03-26T12:40:07.852Z,14.21
2023-03-26T12:44:55.981Z,13.82
2023-03-26T12:47:58.583Z,13.58
2023-03-26T12:51:07.169Z,13.61
2023-03-26T12:54:19.254Z,13.87
2023-03-26T12:57:30.652Z,13.93
2023-03-26T13:01:09.596Z,13.97
2023-03-26T13:04:37.588Z,14.23
2023-03-26T13:07:59.097Z,14.39
2023-03-26T13:11:01.828Z,14.54
2023-03-26T13:14:31.903Z,14.54
2023-03-26T13:17:46.572Z,14.50
2023-03-26T13:20:57.955Z,14.22
2023-03-26T13:24:09.972Z,14.03
2023-03-26T13:27:18.662Z,14.19
2023-03-26T13:31:04.354Z,14.36
2023-03-26T13:34:41.328Z,14.18
2023-03-26T13:37:59.318Z,14.11
2023-03-26T13:41:23.809Z,14.26
2023-03-26T13:44:46.499Z,14.38
2023-03-26T13:47:52.572Z,14.27
2023-03-26T13:51:18.325Z,14.49
2023-03-26T13:54:46.074Z,14.72
2023-03-26T13:58:11.052Z,14.97
2023-03-26T14:01:33.843Z,15.20
2023-03-26T14:04:47.553Z,14.98
2023-03-26T14:07:57.387Z,15.30
2023-03-26T14:11:16.709Z,15.21
2023-03-26T14:14:29.038Z,14.99
2023-03-26T14:18:02.296Z,15.44
2023-03-26T14:21:14.084Z,15.36
2023-03-26T14:24:47.811Z,15.21
2023-03-26T14:28:10.882Z,15.78
2023-03-26T14:31:24.231Z,16.12
2023-03-26T14:34:49.777Z,16.42
2023-03-26T14:38:14.399Z,16.56
2023-03-26T14:41:25.670Z,16.63
2023-03-26T14:44:30.673Z,16.32
2023-03-26T14:48:11.935Z,15.58
2023-03-26T14:51:23.099Z,15.53
2023-03-26T14:54:29.172Z,15.25
2023-03-26T14:57:39.748Z,15.29
2023-03-26T15:00:48.592Z,15.64
2023-03-26T15:04:08.772Z,15.68
2023-03-26T15:07:57.763Z,15.68
2023-03-26T15:11:38.678Z,15.84
2023-03-26T15:15:13.441Z,15.79
2023-03-26T15:18:31.339Z,15.57
2023-03-26T15:21:52.897Z,15.42
2023-03-26T15:25:02.798Z,15.05
2023-03-26T15:28:30.580Z,15.23
2023-03-26T15:31:59.980Z,15.14
2023-03-26T15:35:06.438Z,15.18
2023-03-26T15:38:33.309Z,15.06
2023-03-26T15:41:53.697Z,14.97
2023-03-26T15:45:27.138Z,14.83
2023-03-26T15:49:08.302Z,14.63
2023-03-26T15:52:32.370Z,14.04
2023-03-26T15:55:59.437Z,14.15
2023-03-26T15:59:33.071Z,14.23
2023-03-26T16:03:14.763Z,14.22
2023-03-26T16:06:36.023Z,14.19
2023-03-26T16:09:52.969Z,13.92
2023-03-26T16:13:23.486Z,14.03
2023-03-26T16:16:52.634Z,13.91
2023-03-26T16:20:33.390Z,13.79
2023-03-26T16:23:53.777Z,13.55
2023-03-26T16:27:15.689Z,13.40
2023-03-26T16:30:36.047Z,13.41
2023-03-26T16:33:47.975Z,13.18
2023-03-26T16:36:51.524Z,13.19
2023-03-26T16:39:54.240Z,12.87
2023-03-26T16:43:09.011Z,12.88
2023-03-26T16:46:12.081Z,12.73
2023-03-26T16:49:35.595Z,12.59
2023-03-26T16:53:18.110Z,12.44
2023-03-26T16:56:22.042Z,12.30
2023-03-26T16:59:46.082Z,12.23
2023-03-26T17:03:37.715Z,11.84
2023-03-26T17:06:49.614Z,12.05
2023-03-26T17:10:13.483Z,12.01
2023-03-26T17:13:28.866Z,11.98
2023-03-26T17:16:57.596Z,11.93
2023-03-26T17:20:14.587Z,11.91
2023-03-26T17:23:51.703Z,11.88
2023-03-26T17:27:05.019Z,11.86
2023-03-26T17:30:33.061Z,11.81
2023-03-26T17:33:38.953Z,11.69
2023-03-26T17:36:43.549Z,11.55
2023-03-26T17:39:47.690Z,11.62
2023-03-26T17:43:13.050Z,11.45
2023-03-26T17:46:45.995Z,11.47
2023-03-26T17:53:32.046Z,11.39
2023-03-26T17:56:37.677Z,11.30
2023-03-26T17:59:43.832Z,11.32
2023-03-26T18:02:54.683Z,11.33
2023-03-26T18:06:06.509Z,11.23
2023-03-26T18:09:12.153Z,11.19
2023-03-26T18:12:51.761Z,11.30
2023-03-26T18:16:16.400Z,11.35
2023-03-26T18:19:23.395Z,11.33
2023-03-26T18:22:28.493Z,11.42
2023-03-26T18:25:34.141Z,11.52
2023-03-26T18:28:42.213Z,11.45
2023-03-26T18:31:46.903Z,11.53
2023-03-26T18:34:56.978Z,11.59
2023-03-26T18:38:00.546Z,11.73
2023-03-26T18:41:04.435Z,11.78
2023-03-26T18:44:13.638Z,11.85
2023-03-26T18:47:16.722Z,11.93
2023-03-26T18:50:26.333Z,12.00
2023-03-26T18:53:36.186Z,12.04
2023-03-26T18:56:43.638Z,12.06
2023-03-26T18:59:51.133Z,12.00
2023-03-26T19:03:13.573Z,12.05
2023-03-26T19:06:16.094Z,11.95
2023-03-26T19:09:30.972Z,11.98
2023-03-26T19:12:36.244Z,11.93
2023-03-26T19:15:38.528Z,11.82
2023-03-26T19:18:44.097Z,11.76
2023-03-26T19:21:47.157Z,11.89
2023-03-26T19:24:55.620Z,11.85
2023-03-26T19:27:57.927Z,11.83
2023-03-26T19:31:09.818Z,11.60
2023-03-26T19:34:12.025Z,11.76
2023-03-26T19:37:29.230Z,11.54
2023-03-26T19:40:34.854Z,11.58
2023-03-26T19:43:37.155Z,11.49
2023-03-26T19:50:23.489Z,11.42
2023-03-26T19:51:18.508Z,11.37
2023-03-26T19:53:37.972Z,11.21
2023-03-26T19:56:41.248Z,11.32
2023-03-26T19:59:45.210Z,11.28
2023-03-26T20:02:53.235Z,11.20
2023-03-26T20:05:55.291Z,11.23
2023-03-26T20:08:57.970Z,11.14
2023-03-26T20:12:00.146Z,11.20
2023-03-26T20:15:03.391Z,11.20
2023-03-26T20:18:05.733Z,11.18
2023-03-26T20:21:13.052Z,11.19
2023-03-26T20:24:18.332Z,11.17
2023-03-26T20:27:21.109Z,11.14
2023-03-26T20:30:37.430Z,11.04
2023-03-26T20:33:40.778Z,11.13
2023-03-26T20:36:43.630Z,11.04
2023-03-26T20:39:46.917Z,10.99
2023-03-26T20:42:49.169Z,11.09
2023-03-26T20:45:52.599Z,10.99
2023-03-26T20:48:56.527Z,10.91
2023-03-26T20:52:00.674Z,10.93
2023-03-26T20:55:03.811Z,11.14
2023-03-26T20:58:06.662Z,10.95
2023-03-26T21:01:13.788Z,11.03
2023-03-26T21:04:17.654Z,10.75
2023-03-26T21:07:20.460Z,10.74
2023-03-26T21:10:26.060Z,11.14
2023-03-26T21:13:40.855Z,11.13
2023-03-26T21:16:44.198Z,11.12
2023-03-26T21:19:47.744Z,11.09
2023-03-26T21:23:12.086Z,10.69
2023-03-26T21:26:44.241Z,11.08
2023-03-26T21:29:46.717Z,10.94
2023-03-26T21:32:52.173Z,11.09
2023-03-26T21:35:57.205Z,11.14
2023-03-26T21:38:59.688Z,11.10
2023-03-26T21:42:05.205Z,10.97
2023-03-26T21:45:09.275Z,11.06
2023-03-26T21:48:12.695Z,10.84
2023-03-26T21:51:19.326Z,10.83
2023-03-26T21:54:24.433Z,10.89
2023-03-26T21:58:12.476Z,10.91
2023-03-26T22:01:24.532Z,10.89
2023-03-26T22:04:44.340Z,10.76
2023-03-26T22:07:59.278Z,10.75
2023-03-26T22:11:02.057Z,10.49
2023-03-26T22:14:05.098Z,10.46
2023-03-26T22:17:08.010Z,10.29
2023-03-26T22:20:15.297Z,10.18
2023-03-26T22:23:18.135Z,10.38
2023-03-26T22:26:23.725Z,10.41
2023-03-26T22:29:26.498Z,10.41
2023-03-26T22:32:32.806Z,10.35
2023-03-26T22:35:36.081Z,10.45
2023-03-26T22:38:40.921Z,10.43
2023-03-26T22:41:43.136Z,10.50
2023-03-26T22:44:46.596Z,10.53
2023-03-26T22:47:48.935Z,10.53
2023-03-26T22:50:59.770Z,10.24
2023-03-26T22:54:03.004Z,10.35
2023-03-26T22:57:06.319Z,10.40
2023-03-26T23:00:20.118Z,10.36
2023-03-26T23:03:35.314Z,10.34
2023-03-26T23:06:38.537Z,10.17
2023-03-26T23:09:41.306Z,10.35
2023-03-26T23:12:43.589Z,10.36
2023-03-26T23:15:49.067Z,10.43
2023-03-26T23:18:51.787Z,10.25
2023-03-26T23:21:54.094Z,10.45
2023-03-26T23:24:56.826Z,10.49
2023-03-26T23:27:59.321Z,10.29
2023-03-26T23:31:05.095Z,10.38
2023-03-26T23:34:08.504Z,10.30
2023-03-26T23:37:11.205Z,10.06
2023-03-26T23:40:14.639Z,10.18
2023-03-26T23:43:17.433Z,10.12
2023-03-26T23:46:24.036Z,10.10
2023-03-26T23:49:27.084Z,10.29
2023-03-26T23:52:31.057Z,10.30
2023-03-26T23:55:36.911Z,10.35
2023-03-26T23:58:40.372Z,9.94
